Afton, Michigan
Current Conditions -  °F | °C
As of 4:16 AM on Monday 20 Oct 2014 (Local Time) from KSLH Reporting Station
Overcast Overcast  
Wind Chill:   Ceiling: 2900
Heat Index:   Visibility: 10mi
Dew Point:   Wind: 6mph
Humidity: 86%   Direction: 220°SW
Pressure: 29.74"   Gusts: NA
Location:  45.36°N, 84.47°W
Report Text: KSLH 200816Z AUTO 22005KT 10SM OVC029 09/07 A2974 RMK AO2 T00950072
Loading
Personal Weather Stations






























Interactive Weather Map
Tropical Storm Tracking
New forecast layout! Learn more

10-Day Weather Forecast

Advertisements
Track Severe Weather on mobile